createdAt,value
2023-01-20T00:00:37.977Z,982.14
2023-01-20T00:01:37.914Z,982.12
2023-01-20T00:02:37.938Z,982.21
2023-01-20T00:03:37.961Z,982.11
2023-01-20T00:04:37.955Z,982.18
2023-01-20T00:05:38.598Z,982.19
2023-01-20T00:06:37.887Z,982.12
2023-01-20T00:07:37.843Z,982.20
2023-01-20T00:08:37.861Z,982.22
2023-01-20T00:09:37.891Z,982.26
2023-01-20T00:10:37.828Z,982.20
2023-01-20T00:11:37.818Z,982.30
2023-01-20T00:12:37.836Z,982.26
2023-01-20T00:13:37.820Z,982.20
2023-01-20T00:14:37.864Z,982.25
2023-01-20T00:15:37.789Z,982.22
2023-01-20T00:16:37.775Z,982.22
2023-01-20T00:17:38.055Z,982.29
2023-01-20T00:18:37.735Z,982.31
2023-01-20T00:19:37.754Z,982.30
2023-01-20T00:20:37.729Z,982.34
2023-01-20T00:21:37.707Z,982.30
2023-01-20T00:22:37.689Z,982.36
2023-01-20T00:23:37.681Z,982.33
2023-01-20T00:24:37.761Z,982.32
2023-01-20T00:25:37.691Z,982.39
2023-01-20T00:26:37.640Z,982.45
2023-01-20T00:27:37.659Z,982.43
2023-01-20T00:28:37.648Z,982.46
2023-01-20T00:29:37.983Z,982.46
2023-01-20T00:30:37.624Z,982.50
2023-01-20T00:31:37.625Z,982.46
2023-01-20T00:32:38.092Z,982.51
2023-01-20T00:33:37.585Z,982.48
2023-01-20T00:34:37.612Z,982.50
2023-01-20T00:35:37.561Z,982.51
2023-01-20T00:36:37.599Z,982.57
2023-01-20T00:37:37.535Z,982.50
2023-01-20T00:38:37.521Z,982.53
2023-01-20T00:39:37.530Z,982.55
2023-01-20T00:40:37.505Z,982.47
2023-01-20T00:41:37.484Z,982.51
2023-01-20T00:42:37.485Z,982.52
2023-01-20T00:43:37.558Z,982.62
2023-01-20T00:44:37.498Z,982.55
2023-01-20T00:45:37.441Z,982.58
2023-01-20T00:46:37.445Z,982.57
2023-01-20T00:47:37.423Z,982.60
2023-01-20T00:48:37.409Z,982.61
2023-01-20T00:49:37.528Z,982.61
2023-01-20T00:50:37.410Z,982.58
2023-01-20T00:51:37.384Z,982.58
2023-01-20T00:52:37.386Z,982.64
2023-01-20T00:53:37.367Z,982.68
2023-01-20T00:54:37.368Z,982.62
2023-01-20T00:55:37.356Z,982.67
2023-01-20T00:56:37.461Z,982.72
2023-01-20T00:57:37.324Z,982.67
2023-01-20T00:58:37.401Z,982.72
2023-01-20T00:59:37.327Z,982.66
2023-01-20T01:00:37.326Z,982.68
2023-01-20T01:01:37.477Z,982.69
2023-01-20T01:02:37.308Z,982.72
2023-01-20T01:03:37.378Z,982.74
2023-01-20T01:04:37.261Z,982.73
2023-01-20T01:05:37.234Z,982.82
2023-01-20T01:06:37.261Z,982.82
2023-01-20T01:07:37.223Z,982.81
2023-01-20T01:08:37.253Z,982.84
2023-01-20T01:09:37.308Z,982.88
2023-01-20T01:10:37.243Z,982.86
2023-01-20T01:11:37.248Z,982.81
2023-01-20T01:12:37.297Z,982.85
2023-01-20T01:13:37.255Z,982.83
2023-01-20T01:14:37.139Z,982.90
2023-01-20T01:15:37.185Z,982.88
2023-01-20T01:16:37.188Z,982.91
2023-01-20T01:17:37.117Z,982.92
2023-01-20T01:18:37.098Z,982.97
2023-01-20T01:19:37.085Z,982.92
2023-01-20T01:20:37.092Z,982.93
2023-01-20T01:21:37.101Z,982.99
2023-01-20T01:22:37.113Z,982.99
2023-01-20T01:23:37.099Z,983.05
2023-01-20T01:24:37.033Z,983.03
2023-01-20T01:25:37.030Z,983.05
2023-01-20T01:26:37.045Z,983.12
2023-01-20T01:27:37.068Z,983.18
2023-01-20T01:28:37.005Z,983.21
2023-01-20T01:29:36.996Z,983.14
2023-01-20T01:30:37.060Z,983.20
2023-01-20T01:31:37.140Z,983.23
2023-01-20T01:32:36.992Z,983.20
2023-01-20T01:33:36.950Z,983.23
2023-01-20T01:34:36.936Z,983.27
2023-01-20T01:35:36.943Z,983.20
2023-01-20T01:36:37.053Z,983.25
2023-01-20T01:37:36.906Z,983.27
2023-01-20T01:38:36.911Z,983.27
2023-01-20T01:39:36.897Z,983.30
2023-01-20T01:40:36.904Z,983.36
2023-01-20T01:41:36.866Z,983.38
2023-01-20T01:42:36.913Z,983.32
2023-01-20T01:43:36.876Z,983.36
2023-01-20T01:44:36.889Z,983.36
2023-01-20T01:45:36.818Z,983.36
2023-01-20T01:46:36.805Z,983.33
2023-01-20T01:47:36.861Z,983.38
2023-01-20T01:48:36.841Z,983.36
2023-01-20T01:49:36.769Z,983.36
2023-01-20T01:50:36.774Z,983.32
2023-01-20T01:51:36.751Z,983.38
2023-01-20T01:52:36.740Z,983.40
2023-01-20T01:53:36.738Z,983.42
2023-01-20T01:54:36.734Z,983.39
2023-01-20T01:55:36.727Z,983.45
2023-01-20T01:56:36.722Z,983.40
2023-01-20T01:57:36.760Z,983.41
2023-01-20T01:58:36.688Z,983.37
2023-01-20T01:59:36.686Z,983.45
2023-01-20T02:00:36.685Z,983.44
2023-01-20T02:01:36.716Z,983.37
2023-01-20T02:02:36.712Z,983.36
2023-01-20T02:03:36.635Z,983.37
2023-01-20T02:04:36.626Z,983.45
2023-01-20T02:05:36.638Z,983.37
2023-01-20T02:06:36.606Z,983.43
2023-01-20T02:07:36.593Z,983.42
2023-01-20T02:08:36.576Z,983.36
2023-01-20T02:09:36.569Z,983.42
2023-01-20T02:10:36.563Z,983.38
2023-01-20T02:11:36.659Z,983.43
2023-01-20T02:12:36.599Z,983.48
2023-01-20T02:13:36.584Z,983.45
2023-01-20T02:14:36.538Z,983.47
2023-01-20T02:15:36.504Z,983.45
2023-01-20T02:16:36.585Z,983.46
2023-01-20T02:17:36.509Z,983.47
2023-01-20T02:18:36.467Z,983.45
2023-01-20T02:19:36.506Z,983.47
2023-01-20T02:20:36.440Z,983.44
2023-01-20T02:21:36.442Z,983.45
2023-01-20T02:22:36.456Z,983.48
2023-01-20T02:23:36.411Z,983.49
2023-01-20T02:24:36.475Z,983.49
2023-01-20T02:25:36.416Z,983.46
2023-01-20T02:26:36.424Z,983.53
2023-01-20T02:27:36.370Z,983.54
2023-01-20T02:28:36.361Z,983.54
2023-01-20T02:29:36.386Z,983.52
2023-01-20T02:30:36.410Z,983.53
2023-01-20T02:31:36.390Z,983.53
2023-01-20T02:32:36.339Z,983.59
2023-01-20T02:33:36.338Z,983.57
2023-01-20T02:34:36.352Z,983.57
2023-01-20T02:35:36.300Z,983.62
2023-01-20T02:36:36.287Z,983.59
2023-01-20T02:37:36.291Z,983.57
2023-01-20T02:38:36.277Z,983.62
2023-01-20T02:39:36.366Z,983.55
2023-01-20T02:40:36.301Z,983.62
2023-01-20T02:41:36.232Z,983.62
2023-01-20T02:42:36.223Z,983.59
2023-01-20T02:43:36.207Z,983.63
2023-01-20T02:44:36.239Z,983.59
2023-01-20T02:45:36.269Z,983.56
2023-01-20T02:46:36.320Z,983.61
2023-01-20T02:47:36.156Z,983.61
2023-01-20T02:48:36.168Z,983.59
2023-01-20T02:49:36.167Z,983.61
2023-01-20T02:50:36.139Z,983.69
2023-01-20T02:51:36.166Z,983.62
2023-01-20T02:52:36.152Z,983.64
2023-01-20T02:53:36.164Z,983.69
2023-01-20T02:54:36.163Z,983.71
2023-01-20T02:55:36.093Z,983.67
2023-01-20T02:56:36.087Z,983.69
2023-01-20T02:57:36.138Z,983.68
2023-01-20T02:58:36.055Z,983.71
2023-01-20T02:59:36.050Z,983.70
2023-01-20T03:00:36.045Z,983.67
2023-01-20T03:01:36.142Z,983.74
2023-01-20T03:02:36.042Z,983.78
2023-01-20T03:03:36.105Z,983.76
2023-01-20T03:04:36.031Z,983.77
2023-01-20T03:05:36.018Z,983.80
2023-01-20T03:06:35.998Z,983.82
2023-01-20T03:07:36.016Z,983.85
2023-01-20T03:08:35.948Z,983.78
2023-01-20T03:09:35.942Z,983.80
2023-01-20T03:10:36.022Z,983.82
2023-01-20T03:11:36.312Z,983.82
2023-01-20T03:12:35.909Z,983.88
2023-01-20T03:13:35.898Z,983.88
2023-01-20T03:14:35.887Z,983.92
2023-01-20T03:15:35.920Z,983.90
2023-01-20T03:16:35.963Z,984.01
2023-01-20T03:17:35.889Z,984.00
2023-01-20T03:18:35.859Z,984.01
2023-01-20T03:19:35.863Z,984.02
2023-01-20T03:20:35.903Z,983.99
2023-01-20T03:21:35.817Z,984.09
2023-01-20T03:22:35.806Z,984.02
2023-01-20T03:23:35.808Z,984.10
2023-01-20T03:24:35.839Z,984.05
2023-01-20T03:25:35.817Z,984.09
2023-01-20T03:26:35.827Z,984.07
2023-01-20T03:27:35.755Z,984.05
2023-01-20T03:28:35.767Z,984.06
2023-01-20T03:29:35.748Z,984.05
2023-01-20T03:30:35.840Z,984.11
2023-01-20T03:31:35.844Z,984.10
2023-01-20T03:32:35.720Z,984.05
2023-01-20T03:33:35.742Z,984.14
2023-01-20T03:34:35.725Z,984.15
2023-01-20T03:35:35.820Z,984.14
2023-01-20T03:36:35.669Z,984.15
2023-01-20T03:37:35.677Z,984.16
2023-01-20T03:38:35.632Z,984.21
2023-01-20T03:39:35.727Z,984.18
2023-01-20T03:40:35.623Z,984.22
2023-01-20T03:41:35.612Z,984.22
2023-01-20T03:42:35.594Z,984.19
2023-01-20T03:43:35.619Z,984.18
2023-01-20T03:44:35.606Z,984.22
2023-01-20T03:45:35.624Z,984.22
2023-01-20T03:46:35.538Z,984.17
2023-01-20T03:47:35.526Z,984.26
2023-01-20T03:48:35.564Z,984.21
2023-01-20T03:49:35.565Z,984.23
2023-01-20T03:50:35.572Z,984.23
2023-01-20T03:51:35.531Z,984.27
2023-01-20T03:52:47.410Z,984.30
2023-01-20T03:53:36.491Z,984.30
2023-01-20T03:54:35.460Z,984.39
2023-01-20T03:55:35.479Z,984.28
2023-01-20T03:56:35.459Z,984.26
2023-01-20T03:57:35.483Z,984.32
2023-01-20T03:58:35.491Z,984.31
2023-01-20T03:59:35.419Z,984.29
2023-01-20T04:00:35.420Z,984.34
2023-01-20T04:01:35.521Z,984.31
2023-01-20T04:02:35.445Z,984.32
2023-01-20T04:03:35.454Z,984.31
2023-01-20T04:04:35.397Z,984.32
2023-01-20T04:05:35.396Z,984.30
2023-01-20T04:06:35.329Z,984.33
2023-01-20T04:07:35.329Z,984.34
2023-01-20T04:08:35.368Z,984.40
2023-01-20T04:09:35.355Z,984.40
2023-01-20T04:10:35.348Z,984.38
2023-01-20T04:11:35.360Z,984.43
2023-01-20T04:12:35.316Z,984.41
2023-01-20T04:13:35.279Z,984.45
2023-01-20T04:14:35.299Z,984.45
2023-01-20T04:15:35.338Z,984.52
2023-01-20T04:16:35.286Z,984.51
2023-01-20T04:17:35.224Z,984.54
2023-01-20T04:18:35.236Z,984.51
2023-01-20T04:19:35.255Z,984.55
2023-01-20T04:20:35.200Z,984.53
2023-01-20T04:21:35.194Z,984.51
2023-01-20T04:22:35.179Z,984.53
2023-01-20T04:23:35.201Z,984.53
2023-01-20T04:24:35.207Z,984.59
2023-01-20T04:25:35.155Z,984.60
2023-01-20T04:26:35.137Z,984.61
2023-01-20T04:27:35.157Z,984.59
2023-01-20T04:28:35.113Z,984.64
2023-01-20T04:29:35.100Z,984.64
2023-01-20T04:30:35.163Z,984.64
2023-01-20T04:31:35.196Z,984.67
2023-01-20T04:32:35.081Z,984.70
2023-01-20T04:33:35.049Z,984.70
2023-01-20T04:34:35.072Z,984.71
2023-01-20T04:35:35.035Z,984.68
2023-01-20T04:36:35.032Z,984.69
2023-01-20T04:37:35.009Z,984.73
2023-01-20T04:38:34.995Z,984.72
2023-01-20T04:39:35.049Z,984.68
2023-01-20T04:40:35.042Z,984.64
2023-01-20T04:41:34.966Z,984.65
2023-01-20T04:42:34.949Z,984.76
2023-01-20T04:43:34.972Z,984.79
2023-01-20T04:44:34.950Z,984.82
2023-01-20T04:45:34.945Z,984.83
2023-01-20T04:46:36.924Z,984.87
2023-01-20T04:47:34.961Z,984.83
2023-01-20T04:48:34.935Z,984.87
2023-01-20T04:49:34.883Z,984.98
2023-01-20T04:50:34.894Z,984.92
2023-01-20T04:51:34.872Z,985.01
2023-01-20T04:52:34.851Z,985.03
2023-01-20T04:53:34.888Z,985.08
2023-01-20T04:54:34.942Z,985.04
2023-01-20T04:55:34.833Z,985.05
2023-01-20T04:56:34.884Z,985.05
2023-01-20T04:57:34.855Z,985.11
2023-01-20T04:58:34.784Z,985.13
2023-01-20T04:59:34.868Z,985.17
2023-01-20T05:00:34.781Z,985.21
2023-01-20T05:01:34.851Z,985.17
2023-01-20T05:02:34.758Z,985.20
2023-01-20T05:03:34.730Z,985.20
2023-01-20T05:04:34.776Z,985.23
2023-01-20T05:05:34.734Z,985.25
2023-01-20T05:06:34.697Z,985.25
2023-01-20T05:07:34.697Z,985.35
2023-01-20T05:08:34.701Z,985.28
2023-01-20T05:09:35.152Z,985.30
2023-01-20T05:10:34.659Z,985.29
2023-01-20T05:11:34.731Z,985.39
2023-01-20T05:12:34.709Z,985.37
2023-01-20T05:13:34.646Z,985.35
2023-01-20T05:14:34.623Z,985.36
2023-01-20T05:15:34.658Z,985.40
2023-01-20T05:16:34.588Z,985.38
2023-01-20T05:17:34.733Z,985.48
2023-01-20T05:18:34.570Z,985.47
2023-01-20T05:19:34.588Z,985.49
2023-01-20T05:20:34.558Z,985.49
2023-01-20T05:21:34.581Z,985.50
2023-01-20T05:22:34.596Z,985.56
2023-01-20T05:23:34.527Z,985.56
2023-01-20T05:24:34.549Z,985.57
2023-01-20T05:25:34.524Z,985.64
2023-01-20T05:26:34.515Z,985.66
2023-01-20T05:27:34.503Z,985.71
2023-01-20T05:28:34.493Z,985.69
2023-01-20T05:29:34.472Z,985.71
2023-01-20T05:30:34.580Z,985.75
2023-01-20T05:31:34.497Z,985.77
2023-01-20T05:32:34.424Z,985.76
2023-01-20T05:33:34.429Z,985.83
2023-01-20T05:34:34.431Z,985.81
2023-01-20T05:35:34.406Z,985.82
2023-01-20T05:36:34.504Z,985.88
2023-01-20T05:37:34.415Z,985.87
2023-01-20T05:38:34.364Z,985.92
2023-01-20T05:39:34.501Z,985.97
2023-01-20T05:40:34.392Z,986.01
2023-01-20T05:41:34.385Z,985.98
2023-01-20T05:42:34.315Z,985.99
2023-01-20T05:43:34.316Z,986.08
2023-01-20T05:44:34.447Z,986.04
2023-01-20T05:45:34.301Z,986.00
2023-01-20T05:46:34.394Z,986.07
2023-01-20T05:47:34.294Z,986.05
2023-01-20T05:48:34.320Z,986.06
2023-01-20T05:49:34.349Z,986.01
2023-01-20T05:50:34.247Z,986.12
2023-01-20T05:51:34.223Z,986.03
2023-01-20T05:52:34.269Z,986.07
2023-01-20T05:53:34.204Z,986.12
2023-01-20T05:54:34.204Z,986.14
2023-01-20T05:55:34.201Z,986.15
2023-01-20T05:56:34.249Z,986.16
2023-01-20T05:57:34.169Z,986.18
2023-01-20T05:58:34.227Z,986.22
2023-01-20T05:59:34.169Z,986.24
2023-01-20T06:00:34.661Z,986.24
2023-01-20T06:01:34.200Z,986.28
2023-01-20T06:02:34.139Z,986.24
2023-01-20T06:03:34.244Z,986.30
2023-01-20T06:04:34.203Z,986.31
2023-01-20T06:05:34.205Z,986.27
2023-01-20T06:06:34.250Z,986.30
2023-01-20T06:07:34.077Z,986.36
2023-01-20T06:08:34.069Z,986.36
2023-01-20T06:09:34.157Z,986.33
2023-01-20T06:10:34.083Z,986.33
2023-01-20T06:11:34.014Z,986.32
2023-01-20T06:12:33.999Z,986.32
2023-01-20T06:13:34.000Z,986.32
2023-01-20T06:14:34.191Z,986.29
2023-01-20T06:15:34.719Z,986.34
2023-01-20T06:16:34.011Z,986.33
2023-01-20T06:17:33.994Z,986.27
2023-01-20T06:18:33.977Z,986.31
2023-01-20T06:19:33.998Z,986.41
2023-01-20T06:20:33.940Z,986.36
2023-01-20T06:21:33.946Z,986.37
2023-01-20T06:22:33.927Z,986.42
2023-01-20T06:23:33.963Z,986.40
2023-01-20T06:24:33.892Z,986.40
2023-01-20T06:25:33.939Z,986.47
2023-01-20T06:26:33.852Z,986.49
2023-01-20T06:27:33.994Z,986.50
2023-01-20T06:28:33.866Z,986.52
2023-01-20T06:29:33.873Z,986.58
2023-01-20T06:30:33.913Z,986.58
2023-01-20T06:31:33.865Z,986.57
2023-01-20T06:32:33.801Z,986.58
2023-01-20T06:33:33.868Z,986.62
2023-01-20T06:34:33.785Z,986.61
2023-01-20T06:35:33.779Z,986.57
2023-01-20T06:36:33.764Z,986.58
2023-01-20T06:37:33.761Z,986.67
2023-01-20T06:38:33.741Z,986.63
2023-01-20T06:39:33.737Z,986.65
2023-01-20T06:40:33.717Z,986.65
2023-01-20T06:41:33.772Z,986.62
2023-01-20T06:42:33.752Z,986.68
2023-01-20T06:43:33.695Z,986.68
2023-01-20T06:44:33.763Z,986.71
2023-01-20T06:45:33.681Z,986.75
2023-01-20T06:46:33.692Z,986.75
2023-01-20T06:47:33.638Z,986.74
2023-01-20T06:48:33.623Z,986.70
2023-01-20T06:49:33.667Z,986.75
2023-01-20T06:50:33.631Z,986.80
2023-01-20T06:51:33.610Z,986.81
2023-01-20T06:52:33.645Z,986.85
2023-01-20T06:53:33.614Z,986.85
2023-01-20T06:54:33.638Z,986.84
2023-01-20T06:55:33.583Z,986.86
2023-01-20T06:56:33.616Z,986.88
2023-01-20T06:57:33.560Z,986.92
2023-01-20T06:58:33.537Z,986.91
2023-01-20T06:59:33.528Z,986.90
2023-01-20T07:00:33.559Z,986.90
2023-01-20T07:01:33.681Z,986.90
2023-01-20T07:02:33.600Z,986.97
2023-01-20T07:03:33.481Z,986.96
2023-01-20T07:04:33.470Z,987.00
2023-01-20T07:05:33.497Z,987.09
2023-01-20T07:06:33.476Z,987.08
2023-01-20T07:07:33.500Z,987.13
2023-01-20T07:08:33.435Z,987.14
2023-01-20T07:09:33.507Z,987.15
2023-01-20T07:10:33.405Z,987.19
2023-01-20T07:11:33.424Z,987.18
2023-01-20T07:12:33.385Z,987.16
2023-01-20T07:13:33.396Z,987.17
2023-01-20T07:14:33.409Z,987.21
2023-01-20T07:15:33.358Z,987.22
2023-01-20T07:16:33.452Z,987.19
2023-01-20T07:17:33.322Z,987.16
2023-01-20T07:18:33.312Z,987.22
2023-01-20T07:19:33.345Z,987.17
2023-01-20T07:20:33.298Z,987.21
2023-01-20T07:21:33.331Z,987.24
2023-01-20T07:22:33.335Z,987.30
2023-01-20T07:23:33.330Z,987.25
2023-01-20T07:24:33.286Z,987.27
2023-01-20T07:25:33.249Z,987.30
2023-01-20T07:26:33.253Z,987.34
2023-01-20T07:27:33.221Z,987.35
2023-01-20T07:28:33.219Z,987.45
2023-01-20T07:29:33.326Z,987.43
2023-01-20T07:30:33.247Z,987.46
2023-01-20T07:31:33.253Z,987.45
2023-01-20T07:32:33.169Z,987.42
2023-01-20T07:33:33.160Z,987.43
2023-01-20T07:34:33.161Z,987.46
2023-01-20T07:35:33.314Z,987.49
2023-01-20T07:36:33.156Z,987.53
2023-01-20T07:37:33.183Z,987.56
2023-01-20T07:38:33.108Z,987.55
2023-01-20T07:39:33.188Z,987.56
2023-01-20T07:40:33.159Z,987.49
2023-01-20T07:41:33.128Z,987.54
2023-01-20T07:42:33.127Z,987.63
2023-01-20T07:43:33.077Z,987.59
2023-01-20T07:44:33.166Z,987.64
2023-01-20T07:45:33.131Z,987.62
2023-01-20T07:46:33.023Z,987.57
2023-01-20T07:47:33.088Z,987.63
2023-01-20T07:48:33.021Z,987.59
2023-01-20T07:49:33.058Z,987.60
2023-01-20T07:50:32.983Z,987.65
2023-01-20T07:51:32.986Z,987.66
2023-01-20T07:52:32.993Z,987.67
2023-01-20T07:53:32.945Z,987.69
2023-01-20T07:54:33.008Z,987.73
2023-01-20T07:55:32.951Z,987.73
2023-01-20T07:56:32.912Z,987.69
2023-01-20T07:57:32.906Z,987.74
2023-01-20T07:58:32.950Z,987.77
2023-01-20T07:59:33.424Z,987.78
2023-01-20T08:00:33.098Z,987.85
2023-01-20T08:01:33.089Z,987.76
2023-01-20T08:02:32.853Z,987.80
2023-01-20T08:03:32.846Z,987.83
2023-01-20T08:04:33.105Z,987.87
2023-01-20T08:05:33.042Z,987.85
2023-01-20T08:06:32.854Z,987.90
2023-01-20T08:07:32.822Z,987.86
2023-01-20T08:08:32.815Z,987.92
2023-01-20T08:09:32.799Z,987.92
2023-01-20T08:10:32.821Z,987.93
2023-01-20T08:11:32.827Z,988.01
2023-01-20T08:12:32.742Z,987.96
2023-01-20T08:13:32.753Z,987.85
2023-01-20T08:14:32.810Z,987.94
2023-01-20T08:15:32.766Z,988.03
2023-01-20T08:16:32.722Z,988.01
2023-01-20T08:17:32.784Z,988.03
2023-01-20T08:18:32.744Z,988.06
2023-01-20T08:19:32.745Z,988.02
2023-01-20T08:20:32.659Z,988.05
2023-01-20T08:21:32.675Z,988.01
2023-01-20T08:22:32.725Z,988.08
2023-01-20T08:23:32.628Z,988.10
2023-01-20T08:24:32.679Z,988.09
2023-01-20T08:25:32.624Z,988.10
2023-01-20T08:26:32.642Z,988.12
2023-01-20T08:27:32.764Z,988.15
2023-01-20T08:28:35.142Z,988.13
2023-01-20T08:29:32.615Z,988.17
2023-01-20T08:30:32.740Z,988.28
2023-01-20T08:31:32.644Z,988.22
2023-01-20T08:32:32.531Z,988.21
2023-01-20T08:33:32.538Z,988.25
2023-01-20T08:34:32.587Z,988.25
2023-01-20T08:35:32.508Z,988.26
2023-01-20T08:36:32.529Z,988.29
2023-01-20T08:37:32.613Z,988.29
2023-01-20T08:38:32.581Z,988.32
2023-01-20T08:39:32.756Z,988.34
2023-01-20T08:40:34.139Z,988.28
2023-01-20T08:41:32.669Z,988.34
2023-01-20T08:42:32.441Z,988.30
2023-01-20T08:43:32.461Z,988.36
2023-01-20T08:44:32.486Z,988.31
2023-01-20T08:45:32.407Z,988.37
2023-01-20T08:46:32.385Z,988.31
2023-01-20T08:47:32.425Z,988.41
2023-01-20T08:48:32.401Z,988.31
2023-01-20T08:49:32.453Z,988.42
2023-01-20T08:50:32.352Z,988.45
2023-01-20T08:51:32.478Z,988.40
2023-01-20T08:52:32.360Z,988.43
2023-01-20T08:53:32.385Z,988.40
2023-01-20T08:54:32.357Z,988.42
2023-01-20T08:55:32.313Z,988.46
2023-01-20T08:56:32.396Z,988.43
2023-01-20T08:57:32.457Z,988.45
2023-01-20T08:58:32.348Z,988.50
2023-01-20T08:59:32.290Z,988.49
2023-01-20T09:00:32.258Z,988.52
2023-01-20T09:01:32.279Z,988.47
2023-01-20T09:02:32.327Z,988.53
2023-01-20T09:03:33.164Z,988.55
2023-01-20T09:04:32.303Z,988.59
2023-01-20T09:05:32.239Z,988.56
2023-01-20T09:06:32.261Z,988.63
2023-01-20T09:07:32.250Z,988.59
2023-01-20T09:08:32.161Z,988.60
2023-01-20T09:09:32.233Z,988.63
2023-01-20T09:10:32.132Z,988.64
2023-01-20T09:11:32.177Z,988.59
2023-01-20T09:12:32.115Z,988.62
2023-01-20T09:13:32.113Z,988.72
2023-01-20T09:14:32.122Z,988.70
2023-01-20T09:15:32.175Z,988.77
2023-01-20T09:16:32.267Z,988.71
2023-01-20T09:17:32.060Z,988.69
2023-01-20T09:18:32.044Z,988.70
2023-01-20T09:19:32.096Z,988.76
2023-01-20T09:20:32.040Z,988.77
2023-01-20T09:21:32.030Z,988.76
2023-01-20T09:22:32.057Z,988.77
2023-01-20T09:23:31.993Z,988.81
2023-01-20T09:24:32.095Z,988.82
2023-01-20T09:25:32.189Z,988.82
2023-01-20T09:26:36.192Z,988.89
2023-01-20T09:27:31.950Z,988.86
2023-01-20T09:28:31.960Z,988.86
2023-01-20T09:29:31.964Z,988.84
2023-01-20T09:30:31.927Z,988.90
2023-01-20T09:31:32.166Z,988.89
2023-01-20T09:32:31.926Z,988.88
2023-01-20T09:33:31.947Z,988.90
2023-01-20T09:34:32.083Z,988.89
2023-01-20T09:35:31.874Z,988.91
2023-01-20T09:36:31.852Z,988.93
2023-01-20T09:37:31.851Z,988.87
2023-01-20T09:38:31.855Z,988.90
2023-01-20T09:39:31.866Z,988.94
2023-01-20T09:40:31.837Z,988.91
2023-01-20T09:41:31.808Z,988.95
2023-01-20T09:42:31.908Z,988.94
2023-01-20T09:43:31.776Z,988.94
2023-01-20T09:44:31.777Z,988.96
2023-01-20T09:45:31.767Z,988.98
2023-01-20T09:46:31.794Z,988.98
2023-01-20T09:47:31.767Z,989.00
2023-01-20T09:48:31.743Z,988.98
2023-01-20T09:49:31.743Z,989.00
2023-01-20T09:50:31.712Z,988.99
2023-01-20T09:51:31.871Z,989.06
2023-01-20T09:52:31.700Z,989.09
2023-01-20T09:53:31.712Z,989.06
2023-01-20T09:54:31.702Z,989.05
2023-01-20T09:55:31.735Z,989.08
2023-01-20T09:56:31.649Z,989.04
2023-01-20T09:57:31.642Z,989.07
2023-01-20T09:58:31.656Z,989.12
2023-01-20T09:59:31.699Z,989.08
2023-01-20T10:00:31.630Z,989.11
2023-01-20T10:01:31.631Z,989.11
2023-01-20T10:02:31.581Z,989.09
2023-01-20T10:03:31.595Z,989.07
2023-01-20T10:04:31.607Z,989.09
2023-01-20T10:05:31.621Z,989.11
2023-01-20T10:06:31.533Z,989.11
2023-01-20T10:07:31.641Z,989.11
2023-01-20T10:08:31.702Z,989.16
2023-01-20T10:09:33.573Z,989.20
2023-01-20T10:10:31.497Z,989.16
2023-01-20T10:11:31.531Z,989.15
2023-01-20T10:12:31.497Z,989.20
2023-01-20T10:13:31.491Z,989.16
2023-01-20T10:14:31.478Z,989.14
2023-01-20T10:15:31.480Z,989.19
2023-01-20T10:16:31.488Z,989.20
2023-01-20T10:17:31.482Z,989.15
2023-01-20T10:18:31.517Z,989.17
2023-01-20T10:19:31.449Z,989.20
2023-01-20T10:20:31.397Z,989.26
2023-01-20T10:21:31.376Z,989.16
2023-01-20T10:22:31.418Z,989.12
2023-01-20T10:23:31.412Z,989.16
2023-01-20T10:24:31.354Z,989.18
2023-01-20T10:25:31.347Z,989.15
2023-01-20T10:26:31.352Z,989.16
2023-01-20T10:27:31.511Z,989.13
2023-01-20T10:28:31.307Z,989.15
2023-01-20T10:29:31.315Z,989.18
2023-01-20T10:30:31.306Z,989.20
2023-01-20T10:31:31.314Z,989.13
2023-01-20T10:32:31.262Z,989.12
2023-01-20T10:33:31.267Z,989.12
2023-01-20T10:34:31.367Z,989.13
2023-01-20T10:35:31.395Z,989.10
2023-01-20T10:36:31.366Z,989.10
2023-01-20T10:37:31.204Z,989.16
2023-01-20T10:38:31.206Z,989.12
2023-01-20T10:39:31.232Z,989.13
2023-01-20T10:40:33.553Z,989.14
2023-01-20T10:41:31.241Z,989.12
2023-01-20T10:42:31.180Z,989.16
2023-01-20T10:43:31.145Z,989.17
2023-01-20T10:44:31.282Z,989.18
2023-01-20T10:45:31.516Z,989.13
2023-01-20T10:46:31.183Z,989.10
2023-01-20T10:47:31.098Z,989.12
2023-01-20T10:48:31.113Z,989.13
2023-01-20T10:49:31.135Z,989.14
2023-01-20T10:50:31.137Z,989.13
2023-01-20T10:51:31.099Z,989.13
2023-01-20T10:52:31.173Z,989.12
2023-01-20T10:53:31.120Z,989.11
2023-01-20T10:54:31.176Z,989.20
2023-01-20T10:55:31.045Z,989.10
2023-01-20T10:56:32.822Z,989.21
2023-01-20T10:57:31.007Z,989.19
2023-01-20T10:58:31.028Z,989.19
2023-01-20T10:59:31.060Z,989.13
2023-01-20T11:00:30.981Z,989.18
2023-01-20T11:01:30.997Z,989.16
2023-01-20T11:02:31.298Z,989.14
2023-01-20T11:03:30.956Z,989.23
2023-01-20T11:04:30.923Z,989.14
2023-01-20T11:05:30.922Z,989.14
2023-01-20T11:06:30.932Z,989.16
2023-01-20T11:07:30.954Z,989.14
2023-01-20T11:08:30.890Z,989.16
2023-01-20T11:09:30.971Z,989.18
2023-01-20T11:10:30.884Z,989.22
2023-01-20T11:11:30.888Z,989.22
2023-01-20T11:12:30.887Z,989.21
2023-01-20T11:13:30.841Z,989.25
2023-01-20T11:14:30.872Z,989.21
2023-01-20T11:15:30.843Z,989.26
2023-01-20T11:16:30.869Z,989.22
2023-01-20T11:17:30.851Z,989.24
2023-01-20T11:18:30.769Z,989.29
2023-01-20T11:19:30.885Z,989.25
2023-01-20T11:20:30.790Z,989.25
2023-01-20T11:21:30.739Z,989.20
2023-01-20T11:22:30.747Z,989.30
2023-01-20T11:23:30.736Z,989.30
2023-01-20T11:24:30.737Z,989.28
2023-01-20T11:25:30.718Z,989.27
2023-01-20T11:26:30.702Z,989.31
2023-01-20T11:27:30.718Z,989.26
2023-01-20T11:28:30.725Z,989.23
2023-01-20T11:29:30.725Z,989.29
2023-01-20T11:30:30.659Z,989.30
2023-01-20T11:31:30.659Z,989.29
2023-01-20T11:32:30.652Z,989.32
2023-01-20T11:33:30.667Z,989.34
2023-01-20T11:34:30.611Z,989.36
2023-01-20T11:35:30.594Z,989.35
2023-01-20T11:36:30.597Z,989.42
2023-01-20T11:37:30.595Z,989.36
2023-01-20T11:38:30.731Z,989.34
2023-01-20T11:39:30.572Z,989.25
2023-01-20T11:40:30.546Z,989.21
2023-01-20T11:41:30.515Z,989.22
2023-01-20T11:42:30.529Z,989.23
2023-01-20T11:43:30.526Z,989.21
2023-01-20T11:44:30.527Z,989.21
2023-01-20T11:45:30.584Z,989.18
2023-01-20T11:46:30.572Z,989.22
2023-01-20T11:47:30.621Z,989.21
2023-01-20T11:48:30.443Z,989.21
2023-01-20T11:49:30.490Z,989.24
2023-01-20T11:50:30.474Z,989.18
2023-01-20T11:51:30.449Z,989.15
2023-01-20T11:52:30.426Z,989.20
2023-01-20T11:53:30.399Z,989.15
2023-01-20T11:54:30.396Z,989.14
2023-01-20T11:55:30.425Z,989.17
2023-01-20T11:56:30.512Z,989.19
2023-01-20T11:57:30.346Z,989.19
2023-01-20T11:58:30.332Z,989.14
2023-01-20T11:59:30.359Z,989.14
2023-01-20T12:00:30.328Z,989.10
2023-01-20T12:01:30.327Z,989.13
2023-01-20T12:02:30.312Z,989.05
2023-01-20T12:03:30.403Z,989.07
2023-01-20T12:04:30.388Z,989.16
2023-01-20T12:05:30.343Z,989.12
2023-01-20T12:06:30.247Z,989.10
2023-01-20T12:07:30.235Z,989.12
2023-01-20T12:08:30.244Z,989.03
2023-01-20T12:09:30.247Z,989.12
2023-01-20T12:10:30.213Z,989.09
2023-01-20T12:11:30.225Z,989.13
2023-01-20T12:12:30.880Z,989.12
2023-01-20T12:13:30.276Z,989.09
2023-01-20T12:14:30.272Z,989.14
2023-01-20T12:15:10.241Z,989.14
2023-01-20T12:16:10.308Z,989.16
2023-01-20T12:17:10.212Z,989.14
2023-01-20T12:18:10.214Z,989.23
2023-01-20T12:19:10.205Z,989.18
2023-01-20T12:20:10.342Z,989.20
2023-01-20T12:21:10.190Z,989.25
2023-01-20T12:22:10.247Z,989.27
2023-01-20T12:23:10.153Z,989.33
2023-01-20T12:24:10.145Z,989.27
2023-01-20T12:25:10.182Z,989.16
2023-01-20T12:26:10.225Z,989.24
2023-01-20T12:27:10.167Z,989.24
2023-01-20T12:28:10.202Z,989.19